sensor_id;sensor_type;location;lat;lon;timestamp;temperature;humidity
18794;DHT22;29610;49.022;12.114;2023-05-10T00:02:19;13.50;80.00
18794;DHT22;29610;49.022;12.114;2023-05-10T00:05:08;13.40;79.50
18794;DHT22;29610;49.022;12.114;2023-05-10T00:07:57;13.40;79.40
18794;DHT22;29610;49.022;12.114;2023-05-10T00:10:46;13.40;79.00
18794;DHT22;29610;49.022;12.114;2023-05-10T00:13:36;13.40;79.80
18794;DHT22;29610;49.022;12.114;2023-05-10T00:16:25;13.40;79.90
18794;DHT22;29610;49.022;12.114;2023-05-10T00:19:13;13.50;79.50
18794;DHT22;29610;49.022;12.114;2023-05-10T00:22:03;13.50;79.40
18794;DHT22;29610;49.022;12.114;2023-05-10T00:24:51;13.40;80.10
18794;DHT22;29610;49.022;12.114;2023-05-10T00:27:40;13.40;79.60
18794;DHT22;29610;49.022;12.114;2023-05-10T00:30:30;13.40;79.90
18794;DHT22;29610;49.022;12.114;2023-05-10T00:33:19;13.30;81.00
18794;DHT22;29610;49.022;12.114;2023-05-10T00:36:08;13.30;80.10
18794;DHT22;29610;49.022;12.114;2023-05-10T00:38:57;13.30;80.90
18794;DHT22;29610;49.022;12.114;2023-05-10T00:41:45;13.20;80.90
18794;DHT22;29610;49.022;12.114;2023-05-10T00:44:35;13.30;80.50
18794;DHT22;29610;49.022;12.114;2023-05-10T00:47:27;13.20;81.00
18794;DHT22;29610;49.022;12.114;2023-05-10T00:50:16;13.30;81.00
18794;DHT22;29610;49.022;12.114;2023-05-10T00:53:05;13.30;80.80
18794;DHT22;29610;49.022;12.114;2023-05-10T00:55:55;13.30;81.00
18794;DHT22;29610;49.022;12.114;2023-05-10T00:58:44;13.30;80.50
18794;DHT22;29610;49.022;12.114;2023-05-10T01:01:33;13.20;81.40
18794;DHT22;29610;49.022;12.114;2023-05-10T01:04:24;13.20;81.70
18794;DHT22;29610;49.022;12.114;2023-05-10T01:07:13;13.20;81.80
18794;DHT22;29610;49.022;12.114;2023-05-10T01:10:03;13.10;82.90
18794;DHT22;29610;49.022;12.114;2023-05-10T01:12:52;13.10;82.70
18794;DHT22;29610;49.022;12.114;2023-05-10T01:15:42;13.20;82.20
18794;DHT22;29610;49.022;12.114;2023-05-10T01:18:31;13.20;82.80
18794;DHT22;29610;49.022;12.114;2023-05-10T01:21:37;13.20;82.70
18794;DHT22;29610;49.022;12.114;2023-05-10T01:32:31;13.40;82.70
18794;DHT22;29610;49.022;12.114;2023-05-10T01:35:32;13.40;82.90
18794;DHT22;29610;49.022;12.114;2023-05-10T01:38:31;13.40;82.90
18794;DHT22;29610;49.022;12.114;2023-05-10T01:41:32;13.40;83.60
18794;DHT22;29610;49.022;12.114;2023-05-10T01:44:31;13.40;82.80
18794;DHT22;29610;49.022;12.114;2023-05-10T01:47:29;13.40;83.80
18794;DHT22;29610;49.022;12.114;2023-05-10T01:50:27;13.40;84.20
18794;DHT22;29610;49.022;12.114;2023-05-10T01:53:19;13.40;83.70
18794;DHT22;29610;49.022;12.114;2023-05-10T01:56:10;13.30;84.30
18794;DHT22;29610;49.022;12.114;2023-05-10T01:59:06;13.30;84.80
18794;DHT22;29610;49.022;12.114;2023-05-10T02:02:00;13.30;84.10
18794;DHT22;29610;49.022;12.114;2023-05-10T02:04:53;13.30;84.80
18794;DHT22;29610;49.022;12.114;2023-05-10T02:07:44;13.30;85.20
18794;DHT22;29610;49.022;12.114;2023-05-10T02:10:34;13.20;85.40
18794;DHT22;29610;49.022;12.114;2023-05-10T02:13:24;13.20;85.50
18794;DHT22;29610;49.022;12.114;2023-05-10T02:16:17;13.30;85.40
18794;DHT22;29610;49.022;12.114;2023-05-10T02:19:11;13.20;85.90
18794;DHT22;29610;49.022;12.114;2023-05-10T02:22:03;13.00;87.40
18794;DHT22;29610;49.022;12.114;2023-05-10T02:24:54;13.00;86.70
18794;DHT22;29610;49.022;12.114;2023-05-10T02:27:44;12.90;86.80
18794;DHT22;29610;49.022;12.114;2023-05-10T02:30:36;12.90;88.20
18794;DHT22;29610;49.022;12.114;2023-05-10T02:33:26;12.80;88.60
18794;DHT22;29610;49.022;12.114;2023-05-10T02:36:16;12.70;88.60
18794;DHT22;29610;49.022;12.114;2023-05-10T02:39:08;12.70;88.90
18794;DHT22;29610;49.022;12.114;2023-05-10T02:42:00;12.60;88.50
18794;DHT22;29610;49.022;12.114;2023-05-10T02:44:53;12.70;89.90
18794;DHT22;29610;49.022;12.114;2023-05-10T02:47:45;12.60;89.10
18794;DHT22;29610;49.022;12.114;2023-05-10T02:50:34;12.70;88.40
18794;DHT22;29610;49.022;12.114;2023-05-10T02:53:31;12.70;88.90
18794;DHT22;29610;49.022;12.114;2023-05-10T02:56:25;12.70;89.10
18794;DHT22;29610;49.022;12.114;2023-05-10T02:59:19;12.70;89.70
18794;DHT22;29610;49.022;12.114;2023-05-10T03:02:09;12.60;90.20
18794;DHT22;29610;49.022;12.114;2023-05-10T03:04:58;12.60;90.30
18794;DHT22;29610;49.022;12.114;2023-05-10T03:07:48;12.70;90.10
18794;DHT22;29610;49.022;12.114;2023-05-10T03:10:43;12.60;90.00
18794;DHT22;29610;49.022;12.114;2023-05-10T03:13:56;12.60;90.40
18794;DHT22;29610;49.022;12.114;2023-05-10T03:17:04;12.50;91.00
18794;DHT22;29610;49.022;12.114;2023-05-10T03:20:03;12.50;91.30
18794;DHT22;29610;49.022;12.114;2023-05-10T03:22:58;12.50;91.50
18794;DHT22;29610;49.022;12.114;2023-05-10T03:25:52;12.40;92.40
18794;DHT22;29610;49.022;12.114;2023-05-10T03:28:41;12.10;93.20
18794;DHT22;29610;49.022;12.114;2023-05-10T03:31:32;11.90;94.10
18794;DHT22;29610;49.022;12.114;2023-05-10T03:34:23;11.80;95.00
18794;DHT22;29610;49.022;12.114;2023-05-10T03:37:12;11.70;95.60
18794;DHT22;29610;49.022;12.114;2023-05-10T03:40:02;11.70;96.30
18794;DHT22;29610;49.022;12.114;2023-05-10T03:42:54;11.60;96.80
18794;DHT22;29610;49.022;12.114;2023-05-10T03:45:43;11.50;97.50
18794;DHT22;29610;49.022;12.114;2023-05-10T03:48:34;11.50;97.60
18794;DHT22;29610;49.022;12.114;2023-05-10T03:51:22;11.50;98.70
18794;DHT22;29610;49.022;12.114;2023-05-10T03:54:15;11.40;99.10
18794;DHT22;29610;49.022;12.114;2023-05-10T03:57:04;11.40;99.70
18794;DHT22;29610;49.022;12.114;2023-05-10T03:59:53;11.40;99.90
18794;DHT22;29610;49.022;12.114;2023-05-10T04:02:43;11.40;99.90
18794;DHT22;29610;49.022;12.114;2023-05-10T04:05:38;11.30;99.90
18794;DHT22;29610;49.022;12.114;2023-05-10T04:08:28;11.40;99.90
18794;DHT22;29610;49.022;12.114;2023-05-10T04:11:17;11.30;99.90
18794;DHT22;29610;49.022;12.114;2023-05-10T04:14:06;11.30;99.90
18794;DHT22;29610;49.022;12.114;2023-05-10T04:16:54;11.30;99.90
18794;DHT22;29610;49.022;12.114;2023-05-10T04:19:43;11.40;99.90
18794;DHT22;29610;49.022;12.114;2023-05-10T04:22:33;11.40;99.90
18794;DHT22;29610;49.022;12.114;2023-05-10T04:25:22;11.40;99.90
18794;DHT22;29610;49.022;12.114;2023-05-10T04:28:11;11.50;99.90
18794;DHT22;29610;49.022;12.114;2023-05-10T04:31:03;11.50;99.90
18794;DHT22;29610;49.022;12.114;2023-05-10T04:33:53;11.50;99.90
18794;DHT22;29610;49.022;12.114;2023-05-10T04:36:42;11.50;99.90
18794;DHT22;29610;49.022;12.114;2023-05-10T04:39:32;11.40;99.90
18794;DHT22;29610;49.022;12.114;2023-05-10T04:42:21;11.40;99.90
18794;DHT22;29610;49.022;12.114;2023-05-10T04:45:10;11.40;99.90
18794;DHT22;29610;49.022;12.114;2023-05-10T04:47:59;11.40;99.90
18794;DHT22;29610;49.022;12.114;2023-05-10T04:50:48;11.40;99.90
18794;DHT22;29610;49.022;12.114;2023-05-10T04:53:37;11.40;99.90
18794;DHT22;29610;49.022;12.114;2023-05-10T04:56:27;11.30;99.90
18794;DHT22;29610;49.022;12.114;2023-05-10T04:59:16;11.20;99.90
18794;DHT22;29610;49.022;12.114;2023-05-10T05:02:05;11.10;99.90
18794;DHT22;29610;49.022;12.114;2023-05-10T05:04:55;11.10;99.90
18794;DHT22;29610;49.022;12.114;2023-05-10T05:07:48;11.10;99.90
18794;DHT22;29610;49.022;12.114;2023-05-10T05:10:36;11.20;99.90
18794;DHT22;29610;49.022;12.114;2023-05-10T05:13:27;11.30;99.90
18794;DHT22;29610;49.022;12.114;2023-05-10T05:16:15;11.30;99.90
18794;DHT22;29610;49.022;12.114;2023-05-10T05:19:04;11.20;99.90
18794;DHT22;29610;49.022;12.114;2023-05-10T05:21:53;11.20;99.90
18794;DHT22;29610;49.022;12.114;2023-05-10T05:24:42;11.30;99.90
18794;DHT22;29610;49.022;12.114;2023-05-10T05:27:32;11.40;99.90
18794;DHT22;29610;49.022;12.114;2023-05-10T05:30:22;11.40;99.90
18794;DHT22;29610;49.022;12.114;2023-05-10T05:33:13;11.40;99.90
18794;DHT22;29610;49.022;12.114;2023-05-10T05:36:03;11.50;99.90
18794;DHT22;29610;49.022;12.114;2023-05-10T05:38:53;11.50;99.90
18794;DHT22;29610;49.022;12.114;2023-05-10T05:41:43;11.50;99.90
18794;DHT22;29610;49.022;12.114;2023-05-10T05:44:33;11.50;99.90
18794;DHT22;29610;49.022;12.114;2023-05-10T05:47:23;11.60;99.90
18794;DHT22;29610;49.022;12.114;2023-05-10T05:50:12;11.60;99.90
18794;DHT22;29610;49.022;12.114;2023-05-10T05:53:01;11.70;99.90
18794;DHT22;29610;49.022;12.114;2023-05-10T05:55:53;11.80;99.90
18794;DHT22;29610;49.022;12.114;2023-05-10T05:58:43;11.90;99.90
18794;DHT22;29610;49.022;12.114;2023-05-10T06:01:32;12.00;99.90
18794;DHT22;29610;49.022;12.114;2023-05-10T06:04:23;12.10;99.90
18794;DHT22;29610;49.022;12.114;2023-05-10T06:07:12;12.20;99.90
18794;DHT22;29610;49.022;12.114;2023-05-10T06:10:01;12.30;99.90
18794;DHT22;29610;49.022;12.114;2023-05-10T06:12:50;12.30;99.90
18794;DHT22;29610;49.022;12.114;2023-05-10T06:15:39;12.40;99.90
18794;DHT22;29610;49.022;12.114;2023-05-10T06:18:28;12.50;99.90
18794;DHT22;29610;49.022;12.114;2023-05-10T06:21:18;12.50;99.90
18794;DHT22;29610;49.022;12.114;2023-05-10T06:24:07;12.60;99.90
18794;DHT22;29610;49.022;12.114;2023-05-10T06:26:56;12.70;99.90
18794;DHT22;29610;49.022;12.114;2023-05-10T06:29:47;12.80;99.90
18794;DHT22;29610;49.022;12.114;2023-05-10T06:32:42;12.90;99.90
18794;DHT22;29610;49.022;12.114;2023-05-10T06:35:32;12.90;99.90
18794;DHT22;29610;49.022;12.114;2023-05-10T06:38:22;12.90;99.90
18794;DHT22;29610;49.022;12.114;2023-05-10T06:41:13;12.90;99.90
18794;DHT22;29610;49.022;12.114;2023-05-10T06:44:02;13.00;99.90
18794;DHT22;29610;49.022;12.114;2023-05-10T06:46:51;13.10;99.90
18794;DHT22;29610;49.022;12.114;2023-05-10T06:49:41;13.10;99.90
18794;DHT22;29610;49.022;12.114;2023-05-10T06:52:29;13.10;99.90
18794;DHT22;29610;49.022;12.114;2023-05-10T06:55:20;13.10;99.90
18794;DHT22;29610;49.022;12.114;2023-05-10T06:58:09;13.10;99.90
18794;DHT22;29610;49.022;12.114;2023-05-10T07:01:02;13.10;99.90
18794;DHT22;29610;49.022;12.114;2023-05-10T07:03:51;13.00;99.90
18794;DHT22;29610;49.022;12.114;2023-05-10T07:06:40;13.00;99.90
18794;DHT22;29610;49.022;12.114;2023-05-10T07:09:29;12.90;99.90
18794;DHT22;29610;49.022;12.114;2023-05-10T07:12:19;13.00;99.90
18794;DHT22;29610;49.022;12.114;2023-05-10T07:15:09;13.10;99.90
18794;DHT22;29610;49.022;12.114;2023-05-10T07:17:58;13.40;99.90
18794;DHT22;29610;49.022;12.114;2023-05-10T07:20:47;13.40;99.90
18794;DHT22;29610;49.022;12.114;2023-05-10T07:23:36;13.50;99.90
18794;DHT22;29610;49.022;12.114;2023-05-10T07:26:24;13.30;99.90
18794;DHT22;29610;49.022;12.114;2023-05-10T07:29:14;13.10;99.90
18794;DHT22;29610;49.022;12.114;2023-05-10T07:32:03;13.10;99.90
18794;DHT22;29610;49.022;12.114;2023-05-10T07:34:53;13.30;99.90
18794;DHT22;29610;49.022;12.114;2023-05-10T07:37:42;13.70;99.90
18794;DHT22;29610;49.022;12.114;2023-05-10T07:40:31;14.20;99.90
18794;DHT22;29610;49.022;12.114;2023-05-10T07:43:20;14.70;99.90
18794;DHT22;29610;49.022;12.114;2023-05-10T07:46:10;15.00;99.90
18794;DHT22;29610;49.022;12.114;2023-05-10T07:48:59;15.30;99.90
18794;DHT22;29610;49.022;12.114;2023-05-10T07:51:48;15.50;99.90
18794;DHT22;29610;49.022;12.114;2023-05-10T07:54:37;15.70;99.90
18794;DHT22;29610;49.022;12.114;2023-05-10T07:57:26;15.90;99.90
18794;DHT22;29610;49.022;12.114;2023-05-10T08:00:17;15.90;99.90
18794;DHT22;29610;49.022;12.114;2023-05-10T08:03:09;16.10;99.90
18794;DHT22;29610;49.022;12.114;2023-05-10T08:05:58;16.30;99.90
18794;DHT22;29610;49.022;12.114;2023-05-10T08:08:47;16.50;99.90
18794;DHT22;29610;49.022;12.114;2023-05-10T08:11:38;16.40;99.90
18794;DHT22;29610;49.022;12.114;2023-05-10T08:14:28;16.50;99.90
18794;DHT22;29610;49.022;12.114;2023-05-10T08:17:17;16.60;99.90
18794;DHT22;29610;49.022;12.114;2023-05-10T08:20:10;16.40;99.90
18794;DHT22;29610;49.022;12.114;2023-05-10T08:23:00;16.10;99.90
18794;DHT22;29610;49.022;12.114;2023-05-10T08:25:49;16.20;99.90
18794;DHT22;29610;49.022;12.114;2023-05-10T08:28:37;16.30;99.90
18794;DHT22;29610;49.022;12.114;2023-05-10T08:31:27;16.70;99.90
18794;DHT22;29610;49.022;12.114;2023-05-10T08:34:16;17.00;99.90
18794;DHT22;29610;49.022;12.114;2023-05-10T08:37:06;17.30;99.90
18794;DHT22;29610;49.022;12.114;2023-05-10T08:39:55;16.70;99.90
18794;DHT22;29610;49.022;12.114;2023-05-10T08:42:51;17.70;99.90
18794;DHT22;29610;49.022;12.114;2023-05-10T08:45:47;18.10;99.90
18794;DHT22;29610;49.022;12.114;2023-05-10T08:48:39;18.40;99.90
18794;DHT22;29610;49.022;12.114;2023-05-10T08:51:30;18.70;99.90
18794;DHT22;29610;49.022;12.114;2023-05-10T08:54:25;18.90;99.90
18794;DHT22;29610;49.022;12.114;2023-05-10T08:57:15;19.40;99.90
18794;DHT22;29610;49.022;12.114;2023-05-10T09:00:05;19.70;99.90
18794;DHT22;29610;49.022;12.114;2023-05-10T09:02:56;19.90;99.40
18794;DHT22;29610;49.022;12.114;2023-05-10T09:05:46;19.70;99.30
18794;DHT22;29610;49.022;12.114;2023-05-10T09:08:36;19.50;98.70
18794;DHT22;29610;49.022;12.114;2023-05-10T09:11:27;19.40;99.70
18794;DHT22;29610;49.022;12.114;2023-05-10T09:14:17;19.30;98.40
18794;DHT22;29610;49.022;12.114;2023-05-10T09:17:08;19.20;96.50
18794;DHT22;29610;49.022;12.114;2023-05-10T09:19:59;19.20;96.60
18794;DHT22;29610;49.022;12.114;2023-05-10T09:22:48;19.20;97.60
18794;DHT22;29610;49.022;12.114;2023-05-10T09:25:37;19.50;98.60
18794;DHT22;29610;49.022;12.114;2023-05-10T09:28:31;19.60;97.50
18794;DHT22;29610;49.022;12.114;2023-05-10T09:31:21;19.90;98.20
18794;DHT22;29610;49.022;12.114;2023-05-10T09:34:17;19.80;95.60
18794;DHT22;29610;49.022;12.114;2023-05-10T09:37:06;20.30;95.60
18794;DHT22;29610;49.022;12.114;2023-05-10T09:39:56;18.80;95.90
18794;DHT22;29610;49.022;12.114;2023-05-10T09:42:52;18.10;97.40
18794;DHT22;29610;49.022;12.114;2023-05-10T09:45:44;17.60;97.60
18794;DHT22;29610;49.022;12.114;2023-05-10T09:48:42;17.10;99.10
18794;DHT22;29610;49.022;12.114;2023-05-10T09:51:32;16.80;96.60
18794;DHT22;29610;49.022;12.114;2023-05-10T09:54:23;16.60;97.90
18794;DHT22;29610;49.022;12.114;2023-05-10T09:57:20;16.60;98.10
18794;DHT22;29610;49.022;12.114;2023-05-10T10:00:10;16.60;98.70
18794;DHT22;29610;49.022;12.114;2023-05-10T10:03:12;16.70;97.40
18794;DHT22;29610;49.022;12.114;2023-05-10T10:06:03;17.20;96.50
18794;DHT22;29610;49.022;12.114;2023-05-10T10:09:09;17.40;95.70
18794;DHT22;29610;49.022;12.114;2023-05-10T10:11:59;17.90;96.00
18794;DHT22;29610;49.022;12.114;2023-05-10T10:14:48;17.90;94.60
18794;DHT22;29610;49.022;12.114;2023-05-10T10:17:38;18.00;93.70
18794;DHT22;29610;49.022;12.114;2023-05-10T10:20:29;18.20;94.60
18794;DHT22;29610;49.022;12.114;2023-05-10T10:23:18;18.40;92.50
18794;DHT22;29610;49.022;12.114;2023-05-10T10:26:07;18.70;93.10
18794;DHT22;29610;49.022;12.114;2023-05-10T10:29:04;18.30;92.70
18794;DHT22;29610;49.022;12.114;2023-05-10T10:32:09;18.20;92.50
18794;DHT22;29610;49.022;12.114;2023-05-10T10:35:08;18.40;92.30
18794;DHT22;29610;49.022;12.114;2023-05-10T10:37:58;18.50;92.40
18794;DHT22;29610;49.022;12.114;2023-05-10T10:41:01;18.70;92.40
18794;DHT22;29610;49.022;12.114;2023-05-10T10:44:25;18.60;91.20
18794;DHT22;29610;49.022;12.114;2023-05-10T10:47:22;19.00;91.80
18794;DHT22;29610;49.022;12.114;2023-05-10T10:50:15;19.60;92.10
18794;DHT22;29610;49.022;12.114;2023-05-10T10:53:11;20.60;91.60
18794;DHT22;29610;49.022;12.114;2023-05-10T10:56:08;20.80;90.20
18794;DHT22;29610;49.022;12.114;2023-05-10T10:58:59;20.40;84.70
18794;DHT22;29610;49.022;12.114;2023-05-10T11:01:51;20.10;89.00
18794;DHT22;29610;49.022;12.114;2023-05-10T11:04:44;20.40;85.80
18794;DHT22;29610;49.022;12.114;2023-05-10T11:07:34;20.10;82.30
18794;DHT22;29610;49.022;12.114;2023-05-10T11:10:25;19.70;82.70
18794;DHT22;29610;49.022;12.114;2023-05-10T11:13:16;19.50;84.80
18794;DHT22;29610;49.022;12.114;2023-05-10T11:16:16;19.10;86.50
18794;DHT22;29610;49.022;12.114;2023-05-10T11:19:07;18.80;87.40
18794;DHT22;29610;49.022;12.114;2023-05-10T11:22:14;18.40;87.90
18794;DHT22;29610;49.022;12.114;2023-05-10T11:25:03;18.60;88.20
18794;DHT22;29610;49.022;12.114;2023-05-10T11:27:55;18.90;90.10
18794;DHT22;29610;49.022;12.114;2023-05-10T11:30:44;19.30;88.90
18794;DHT22;29610;49.022;12.114;2023-05-10T11:33:42;19.50;88.00
18794;DHT22;29610;49.022;12.114;2023-05-10T11:36:34;19.60;82.80
18794;DHT22;29610;49.022;12.114;2023-05-10T11:39:26;19.40;86.70
18794;DHT22;29610;49.022;12.114;2023-05-10T11:42:15;19.20;86.70
18794;DHT22;29610;49.022;12.114;2023-05-10T11:45:07;19.20;84.00
18794;DHT22;29610;49.022;12.114;2023-05-10T11:47:57;19.00;84.30
18794;DHT22;29610;49.022;12.114;2023-05-10T11:50:47;18.60;87.50
18794;DHT22;29610;49.022;12.114;2023-05-10T11:53:36;18.30;86.60
18794;DHT22;29610;49.022;12.114;2023-05-10T11:56:25;18.20;88.70
18794;DHT22;29610;49.022;12.114;2023-05-10T11:59:14;18.60;89.10
18794;DHT22;29610;49.022;12.114;2023-05-10T12:02:04;19.00;88.80
18794;DHT22;29610;49.022;12.114;2023-05-10T12:05:12;19.50;86.90
18794;DHT22;29610;49.022;12.114;2023-05-10T12:08:12;19.90;84.20
18794;DHT22;29610;49.022;12.114;2023-05-10T12:11:06;19.70;84.70
18794;DHT22;29610;49.022;12.114;2023-05-10T12:13:57;19.50;85.40
18794;DHT22;29610;49.022;12.114;2023-05-10T12:16:47;19.20;88.10
18794;DHT22;29610;49.022;12.114;2023-05-10T12:19:41;19.40;86.20
18794;DHT22;29610;49.022;12.114;2023-05-10T12:22:33;19.50;85.70
18794;DHT22;29610;49.022;12.114;2023-05-10T12:25:23;19.10;84.50
18794;DHT22;29610;49.022;12.114;2023-05-10T12:28:19;18.80;86.40
18794;DHT22;29610;49.022;12.114;2023-05-10T12:31:10;18.40;90.20
18794;DHT22;29610;49.022;12.114;2023-05-10T12:33:59;18.00;90.70
18794;DHT22;29610;49.022;12.114;2023-05-10T12:36:52;17.70;92.20
18794;DHT22;29610;49.022;12.114;2023-05-10T12:39:42;16.90;92.80
18794;DHT22;29610;49.022;12.114;2023-05-10T12:42:33;16.20;92.50
18794;DHT22;29610;49.022;12.114;2023-05-10T12:45:22;16.10;92.50
18794;DHT22;29610;49.022;12.114;2023-05-10T12:48:14;16.30;92.60
18794;DHT22;29610;49.022;12.114;2023-05-10T12:51:03;16.50;92.40
18794;DHT22;29610;49.022;12.114;2023-05-10T12:53:54;16.50;91.90
18794;DHT22;29610;49.022;12.114;2023-05-10T12:56:43;16.20;92.30
18794;DHT22;29610;49.022;12.114;2023-05-10T12:59:32;16.20;92.40
18794;DHT22;29610;49.022;12.114;2023-05-10T13:02:24;16.10;92.50
18794;DHT22;29610;49.022;12.114;2023-05-10T13:05:13;16.20;92.60
18794;DHT22;29610;49.022;12.114;2023-05-10T13:08:02;16.20;93.00
18794;DHT22;29610;49.022;12.114;2023-05-10T13:10:52;16.10;93.40
18794;DHT22;29610;49.022;12.114;2023-05-10T13:13:44;16.30;92.40
18794;DHT22;29610;49.022;12.114;2023-05-10T13:16:33;16.20;92.20
18794;DHT22;29610;49.022;12.114;2023-05-10T13:19:22;16.40;92.60
18794;DHT22;29610;49.022;12.114;2023-05-10T13:22:11;16.50;91.50
18794;DHT22;29610;49.022;12.114;2023-05-10T13:25:02;16.30;92.00
18794;DHT22;29610;49.022;12.114;2023-05-10T13:27:52;16.20;92.60
18794;DHT22;29610;49.022;12.114;2023-05-10T13:30:44;16.40;93.00
18794;DHT22;29610;49.022;12.114;2023-05-10T13:33:33;16.40;93.40
18794;DHT22;29610;49.022;12.114;2023-05-10T13:36:21;16.40;93.80
18794;DHT22;29610;49.022;12.114;2023-05-10T13:39:10;16.00;93.50
18794;DHT22;29610;49.022;12.114;2023-05-10T13:41:59;16.00;94.10
18794;DHT22;29610;49.022;12.114;2023-05-10T13:44:49;15.90;94.50
18794;DHT22;29610;49.022;12.114;2023-05-10T13:47:38;15.90;94.50
18794;DHT22;29610;49.022;12.114;2023-05-10T13:50:27;16.10;94.10
18794;DHT22;29610;49.022;12.114;2023-05-10T13:53:17;16.20;94.40
18794;DHT22;29610;49.022;12.114;2023-05-10T13:56:06;16.00;94.30
18794;DHT22;29610;49.022;12.114;2023-05-10T13:58:56;16.20;94.60
18794;DHT22;29610;49.022;12.114;2023-05-10T14:01:46;16.30;94.70
18794;DHT22;29610;49.022;12.114;2023-05-10T14:04:35;16.20;95.00
18794;DHT22;29610;49.022;12.114;2023-05-10T14:07:24;16.10;94.50
18794;DHT22;29610;49.022;12.114;2023-05-10T14:10:15;16.00;95.00
18794;DHT22;29610;49.022;12.114;2023-05-10T14:13:04;15.80;96.00
18794;DHT22;29610;49.022;12.114;2023-05-10T14:15:54;16.00;97.30
18794;DHT22;29610;49.022;12.114;2023-05-10T14:18:44;16.10;96.20
18794;DHT22;29610;49.022;12.114;2023-05-10T14:21:33;16.20;96.10
18794;DHT22;29610;49.022;12.114;2023-05-10T14:24:22;16.10;97.10
18794;DHT22;29610;49.022;12.114;2023-05-10T14:27:11;16.20;96.30
18794;DHT22;29610;49.022;12.114;2023-05-10T14:30:00;16.40;97.60
18794;DHT22;29610;49.022;12.114;2023-05-10T14:32:49;16.60;97.30
18794;DHT22;29610;49.022;12.114;2023-05-10T14:35:39;16.70;96.80
18794;DHT22;29610;49.022;12.114;2023-05-10T14:38:28;16.80;95.50
18794;DHT22;29610;49.022;12.114;2023-05-10T14:41:17;16.60;96.30
18794;DHT22;29610;49.022;12.114;2023-05-10T14:44:06;16.70;97.70
18794;DHT22;29610;49.022;12.114;2023-05-10T14:46:55;16.80;97.40
18794;DHT22;29610;49.022;12.114;2023-05-10T14:49:44;16.50;96.70
18794;DHT22;29610;49.022;12.114;2023-05-10T14:52:34;16.50;97.40
18794;DHT22;29610;49.022;12.114;2023-05-10T14:55:23;16.10;97.90
18794;DHT22;29610;49.022;12.114;2023-05-10T14:58:12;15.90;98.00
18794;DHT22;29610;49.022;12.114;2023-05-10T15:01:01;15.90;98.80
18794;DHT22;29610;49.022;12.114;2023-05-10T15:03:51;15.70;97.90
18794;DHT22;29610;49.022;12.114;2023-05-10T15:06:40;15.50;98.70
18794;DHT22;29610;49.022;12.114;2023-05-10T15:09:30;15.40;98.90
18794;DHT22;29610;49.022;12.114;2023-05-10T15:12:22;15.20;99.40
18794;DHT22;29610;49.022;12.114;2023-05-10T15:15:13;15.00;99.70
18794;DHT22;29610;49.022;12.114;2023-05-10T15:18:03;14.80;99.90
18794;DHT22;29610;49.022;12.114;2023-05-10T15:20:53;14.60;99.90
18794;DHT22;29610;49.022;12.114;2023-05-10T15:23:42;14.40;99.90
18794;DHT22;29610;49.022;12.114;2023-05-10T15:26:33;14.30;99.90
18794;DHT22;29610;49.022;12.114;2023-05-10T15:29:22;14.30;99.90
18794;DHT22;29610;49.022;12.114;2023-05-10T15:32:11;14.30;99.90
18794;DHT22;29610;49.022;12.114;2023-05-10T15:35:00;14.40;99.90
18794;DHT22;29610;49.022;12.114;2023-05-10T15:37:50;14.20;99.90
18794;DHT22;29610;49.022;12.114;2023-05-10T15:40:38;14.40;99.90
18794;DHT22;29610;49.022;12.114;2023-05-10T15:43:29;14.50;99.90
18794;DHT22;29610;49.022;12.114;2023-05-10T15:46:17;14.50;99.90
18794;DHT22;29610;49.022;12.114;2023-05-10T15:49:07;14.60;99.90
18794;DHT22;29610;49.022;12.114;2023-05-10T15:51:56;14.60;99.90
18794;DHT22;29610;49.022;12.114;2023-05-10T15:54:44;14.60;99.90
18794;DHT22;29610;49.022;12.114;2023-05-10T15:57:33;14.60;99.90
18794;DHT22;29610;49.022;12.114;2023-05-10T16:00:24;14.60;99.90
18794;DHT22;29610;49.022;12.114;2023-05-10T16:03:13;14.60;99.90
18794;DHT22;29610;49.022;12.114;2023-05-10T16:06:02;14.50;99.90
18794;DHT22;29610;49.022;12.114;2023-05-10T16:08:52;14.40;99.90
18794;DHT22;29610;49.022;12.114;2023-05-10T16:11:41;14.40;99.90
18794;DHT22;29610;49.022;12.114;2023-05-10T16:14:31;14.50;99.90
18794;DHT22;29610;49.022;12.114;2023-05-10T16:17:21;14.50;99.90
18794;DHT22;29610;49.022;12.114;2023-05-10T16:20:11;14.50;99.90
18794;DHT22;29610;49.022;12.114;2023-05-10T16:23:03;14.50;99.90
18794;DHT22;29610;49.022;12.114;2023-05-10T16:25:53;14.50;99.90
18794;DHT22;29610;49.022;12.114;2023-05-10T16:28:42;14.50;99.90
18794;DHT22;29610;49.022;12.114;2023-05-10T16:31:31;14.40;99.90
18794;DHT22;29610;49.022;12.114;2023-05-10T16:34:22;14.30;99.90
18794;DHT22;29610;49.022;12.114;2023-05-10T16:37:11;14.40;99.90
18794;DHT22;29610;49.022;12.114;2023-05-10T16:40:01;14.20;99.90
18794;DHT22;29610;49.022;12.114;2023-05-10T16:42:50;14.20;99.90
18794;DHT22;29610;49.022;12.114;2023-05-10T16:45:39;14.10;99.90
18794;DHT22;29610;49.022;12.114;2023-05-10T16:48:28;14.00;99.90
18794;DHT22;29610;49.022;12.114;2023-05-10T16:51:21;14.00;99.90
18794;DHT22;29610;49.022;12.114;2023-05-10T16:54:09;13.90;99.90
18794;DHT22;29610;49.022;12.114;2023-05-10T16:56:58;13.90;99.90
18794;DHT22;29610;49.022;12.114;2023-05-10T16:59:48;14.00;99.90
18794;DHT22;29610;49.022;12.114;2023-05-10T17:02:41;14.00;99.90
18794;DHT22;29610;49.022;12.114;2023-05-10T17:05:30;13.90;99.90
18794;DHT22;29610;49.022;12.114;2023-05-10T17:08:20;13.90;99.90
18794;DHT22;29610;49.022;12.114;2023-05-10T17:11:09;13.90;99.90
18794;DHT22;29610;49.022;12.114;2023-05-10T17:13:59;13.70;99.90
18794;DHT22;29610;49.022;12.114;2023-05-10T17:16:51;13.70;99.90
18794;DHT22;29610;49.022;12.114;2023-05-10T17:19:43;13.70;99.90
18794;DHT22;29610;49.022;12.114;2023-05-10T17:22:33;13.70;99.90
18794;DHT22;29610;49.022;12.114;2023-05-10T17:25:23;13.60;99.90
18794;DHT22;29610;49.022;12.114;2023-05-10T17:28:12;13.60;99.90
18794;DHT22;29610;49.022;12.114;2023-05-10T17:31:01;13.60;99.90
18794;DHT22;29610;49.022;12.114;2023-05-10T17:33:50;13.50;99.90
18794;DHT22;29610;49.022;12.114;2023-05-10T17:36:39;13.50;99.90
18794;DHT22;29610;49.022;12.114;2023-05-10T17:39:27;13.40;99.90
18794;DHT22;29610;49.022;12.114;2023-05-10T17:42:17;13.40;99.90
18794;DHT22;29610;49.022;12.114;2023-05-10T17:45:10;13.40;99.90
18794;DHT22;29610;49.022;12.114;2023-05-10T17:47:59;13.40;99.90
18794;DHT22;29610;49.022;12.114;2023-05-10T17:50:48;13.40;99.90